createdAt,value
2022-08-27T00:00:18.469Z,20.55
2022-08-27T00:00:52.704Z,20.58
2022-08-27T00:01:28.866Z,19.10
2022-08-27T00:02:03.021Z,19.20
2022-08-27T00:02:36.769Z,20.63
2022-08-27T00:03:11.515Z,19.92
2022-08-27T00:03:45.311Z,20.27
2022-08-27T00:04:21.823Z,18.92
2022-08-27T00:04:56.897Z,20.08
2022-08-27T00:05:31.583Z,20.27
2022-08-27T00:06:05.383Z,19.40
2022-08-27T00:06:41.807Z,19.70
2022-08-27T00:07:16.238Z,19.45
2022-08-27T00:07:49.700Z,21.25
2022-08-27T00:08:25.923Z,19.95
2022-08-27T00:09:00.163Z,19.45
2022-08-27T00:09:36.773Z,20.17
2022-08-27T00:10:12.480Z,20.70
2022-08-27T00:10:47.486Z,20.73
2022-08-27T00:11:22.979Z,20.42
2022-08-27T00:11:57.989Z,21.83
2022-08-27T00:12:31.401Z,20.08
2022-08-27T00:13:06.922Z,19.63
2022-08-27T00:13:42.776Z,19.17
2022-08-27T00:14:16.280Z,21.02
2022-08-27T00:14:51.322Z,19.67
2022-08-27T00:15:25.862Z,19.85
2022-08-27T00:16:00.544Z,21.50
2022-08-27T00:16:35.675Z,21.17
2022-08-27T00:17:10.246Z,20.48
2022-08-27T00:17:46.044Z,20.23
2022-08-27T00:18:22.818Z,19.88
2022-08-27T00:18:57.500Z,20.27
2022-08-27T00:19:31.750Z,19.67
2022-08-27T00:20:08.816Z,20.92
2022-08-27T00:20:42.948Z,19.52
2022-08-27T00:21:18.214Z,19.48
2022-08-27T00:21:54.218Z,20.63
2022-08-27T00:22:28.504Z,20.50
2022-08-27T00:23:02.813Z,20.25
2022-08-27T00:23:39.403Z,19.05
2022-08-27T00:24:12.582Z,20.13
2022-08-27T00:24:48.784Z,20.52
2022-08-27T00:25:24.778Z,21.48
2022-08-27T00:25:59.378Z,20.77
2022-08-27T00:26:34.027Z,19.67
2022-08-27T00:27:09.470Z,20.55
2022-08-27T00:27:43.226Z,20.15
2022-08-27T00:28:18.458Z,19.15
2022-08-27T00:28:53.821Z,19.70
2022-08-27T00:29:27.984Z,19.55
2022-08-27T00:30:04.972Z,20.60
2022-08-27T00:30:41.020Z,20.85
2022-08-27T00:31:15.586Z,20.38
2022-08-27T00:31:51.971Z,20.17
2022-08-27T00:32:29.189Z,20.02
2022-08-27T00:33:04.928Z,20.38
2022-08-27T00:33:38.885Z,19.83
2022-08-27T00:34:14.664Z,19.75
2022-08-27T00:34:48.401Z,20.85
2022-08-27T00:35:22.758Z,20.42
2022-08-27T00:35:58.978Z,20.88
2022-08-27T00:36:33.810Z,20.35
2022-08-27T00:37:06.975Z,19.80
2022-08-27T00:37:42.045Z,20.02
2022-08-27T00:38:16.278Z,19.83
2022-08-27T00:38:53.847Z,20.13
2022-08-27T00:39:28.946Z,19.95
2022-08-27T00:40:05.099Z,19.75
2022-08-27T00:40:40.046Z,19.10
2022-08-27T00:41:17.175Z,20.63
2022-08-27T00:41:52.760Z,20.25
2022-08-27T00:42:26.926Z,19.98
2022-08-27T00:43:05.819Z,20.98
2022-08-27T00:43:47.514Z,20.38
2022-08-27T00:44:21.104Z,19.83
2022-08-27T00:44:55.578Z,20.85
2022-08-27T00:45:29.372Z,20.42
2022-08-27T00:46:06.541Z,20.83
2022-08-27T00:46:43.781Z,20.08
2022-08-27T00:47:19.083Z,20.67
2022-08-27T00:47:59.577Z,21.05
2022-08-27T00:48:36.601Z,20.60
2022-08-27T00:49:11.080Z,22.10
2022-08-27T00:49:46.643Z,20.45
2022-08-27T00:50:25.283Z,20.63
2022-08-27T00:51:00.065Z,20.67
2022-08-27T00:51:34.123Z,19.80
2022-08-27T00:52:10.650Z,20.45
2022-08-27T00:52:46.047Z,20.10
2022-08-27T00:53:21.000Z,21.33
2022-08-27T00:53:56.269Z,20.60
2022-08-27T00:54:31.170Z,20.27
2022-08-27T00:55:08.593Z,22.40
2022-08-27T00:55:45.884Z,21.17
2022-08-27T00:56:21.054Z,21.10
2022-08-27T00:56:55.830Z,20.05
2022-08-27T00:57:30.612Z,21.27
2022-08-27T00:58:07.183Z,21.10
2022-08-27T00:58:42.762Z,21.58
2022-08-27T00:59:19.362Z,21.95
2022-08-27T00:59:53.772Z,20.80
2022-08-27T01:00:27.631Z,20.92
2022-08-27T01:01:02.494Z,20.10
2022-08-27T01:01:56.933Z,21.33
2022-08-27T01:02:30.962Z,20.17
2022-08-27T01:03:06.798Z,20.17
2022-08-27T01:03:40.768Z,20.77
2022-08-27T01:04:15.315Z,21.17
2022-08-27T01:04:52.388Z,19.52
2022-08-27T01:05:27.526Z,20.85
2022-08-27T01:06:02.115Z,21.17
2022-08-27T01:06:38.617Z,20.45
2022-08-27T01:07:12.866Z,20.27
2022-08-27T01:07:48.397Z,22.00
2022-08-27T01:08:23.777Z,20.45
2022-08-27T01:09:00.489Z,21.45
2022-08-27T01:09:34.400Z,20.55
2022-08-27T01:10:15.061Z,20.88
2022-08-27T01:10:49.320Z,21.20
2022-08-27T01:11:23.108Z,19.88
2022-08-27T01:11:58.296Z,18.95
2022-08-27T01:12:33.692Z,20.23
2022-08-27T01:13:09.282Z,19.55
2022-08-27T01:13:59.508Z,19.88
2022-08-27T01:14:35.782Z,20.60
2022-08-27T01:15:14.932Z,19.98
2022-08-27T01:15:53.202Z,21.38
2022-08-27T01:16:29.384Z,19.67
2022-08-27T01:17:04.068Z,20.60
2022-08-27T01:17:38.166Z,20.67
2022-08-27T01:18:13.765Z,20.63
2022-08-27T01:18:48.311Z,21.58
2022-08-27T01:19:28.915Z,20.63
2022-08-27T01:20:06.639Z,20.10
2022-08-27T01:20:44.705Z,20.73
2022-08-27T01:21:25.604Z,21.13
2022-08-27T01:22:00.894Z,20.25
2022-08-27T01:22:39.799Z,21.05
2022-08-27T01:23:19.470Z,20.65
2022-08-27T01:23:56.437Z,21.35
2022-08-27T01:24:36.325Z,21.48
2022-08-27T01:25:11.910Z,21.52
2022-08-27T01:25:47.093Z,21.02
2022-08-27T01:26:21.862Z,21.10
2022-08-27T01:26:58.287Z,21.38
2022-08-27T01:27:31.912Z,20.67
2022-08-27T01:28:07.005Z,20.67
2022-08-27T01:28:42.496Z,20.38
2022-08-27T01:29:17.187Z,21.20
2022-08-27T01:29:51.820Z,21.05
2022-08-27T01:30:25.343Z,21.33
2022-08-27T01:30:59.664Z,21.17
2022-08-27T01:31:34.686Z,19.90
2022-08-27T01:32:11.324Z,21.63
2022-08-27T01:32:46.176Z,18.50
2022-08-27T01:33:22.601Z,20.50
2022-08-27T01:33:57.477Z,21.58
2022-08-27T01:34:32.035Z,20.95
2022-08-27T01:35:08.149Z,21.50
2022-08-27T01:35:42.717Z,20.35
2022-08-27T01:36:16.437Z,22.33
2022-08-27T01:36:50.985Z,21.33
2022-08-27T01:37:31.679Z,21.38
2022-08-27T01:38:06.159Z,21.08
2022-08-27T01:38:46.511Z,20.30
2022-08-27T01:39:23.280Z,21.27
2022-08-27T01:40:00.301Z,20.83
2022-08-27T01:40:35.358Z,21.70
2022-08-27T01:41:08.848Z,21.10
2022-08-27T01:41:42.794Z,21.30
2022-08-27T01:42:18.991Z,20.70
2022-08-27T01:42:53.982Z,21.23
2022-08-27T01:43:28.676Z,21.20
2022-08-27T01:44:06.381Z,22.27
2022-08-27T01:44:44.741Z,21.60
2022-08-27T01:45:23.055Z,21.15
2022-08-27T01:45:58.246Z,22.35
2022-08-27T01:46:32.266Z,21.73
2022-08-27T01:47:07.393Z,22.10
2022-08-27T01:47:43.328Z,21.05
2022-08-27T01:48:18.217Z,21.08
2022-08-27T01:48:51.282Z,20.08
2022-08-27T01:49:26.930Z,22.30
2022-08-27T01:50:03.299Z,22.65
2022-08-27T01:50:38.917Z,22.58
2022-08-27T01:51:12.294Z,21.45
2022-08-27T01:51:45.401Z,21.35
2022-08-27T01:52:22.436Z,21.25
2022-08-27T01:52:57.794Z,21.08
2022-08-27T01:53:33.264Z,22.08
2022-08-27T01:54:07.997Z,20.92
2022-08-27T01:54:42.320Z,22.50
2022-08-27T01:55:20.617Z,21.40
2022-08-27T01:55:54.904Z,22.50
2022-08-27T01:56:29.765Z,21.95
2022-08-27T01:57:04.710Z,22.55
2022-08-27T01:57:38.827Z,22.17
2022-08-27T01:58:15.112Z,21.10
2022-08-27T01:58:49.801Z,22.13
2022-08-27T01:59:25.830Z,21.55
2022-08-27T02:00:15.399Z,22.40
2022-08-27T02:00:56.378Z,21.77
2022-08-27T02:01:31.496Z,20.83
2022-08-27T02:02:05.659Z,22.20
2022-08-27T02:02:39.804Z,23.08
2022-08-27T02:03:13.939Z,22.05
2022-08-27T02:03:48.899Z,22.75
2022-08-27T02:04:24.102Z,22.45
2022-08-27T02:04:58.716Z,22.45
2022-08-27T02:05:32.599Z,21.88
2022-08-27T02:06:19.845Z,22.27
2022-08-27T02:06:53.890Z,22.70
2022-08-27T02:07:27.154Z,21.50
2022-08-27T02:08:02.175Z,21.48
2022-08-27T02:08:37.089Z,21.98
2022-08-27T02:09:10.637Z,22.38
2022-08-27T02:09:47.491Z,21.48
2022-08-27T02:10:25.223Z,22.80
2022-08-27T02:11:00.346Z,47.33
2022-08-27T02:11:35.723Z,30.33
2022-08-27T02:12:19.554Z,24.67
2022-08-27T02:12:54.012Z,21.85
2022-08-27T02:13:28.355Z,23.13
2022-08-27T02:14:02.343Z,22.48
2022-08-27T02:14:46.906Z,22.88
2022-08-27T02:15:21.110Z,21.85
2022-08-27T02:15:55.706Z,21.88
2022-08-27T02:16:32.686Z,21.48
2022-08-27T02:17:06.498Z,21.42
2022-08-27T02:17:41.030Z,22.98
2022-08-27T02:18:15.910Z,21.45
2022-08-27T02:18:49.394Z,22.00
2022-08-27T02:19:22.906Z,22.70
2022-08-27T02:19:59.072Z,21.88
2022-08-27T02:20:32.774Z,21.45
2022-08-27T02:21:07.035Z,22.08
2022-08-27T02:21:41.936Z,22.27
2022-08-27T02:22:16.580Z,21.75
2022-08-27T02:22:51.246Z,23.35
2022-08-27T02:23:24.602Z,21.85
2022-08-27T02:23:59.443Z,22.52
2022-08-27T02:24:34.660Z,23.35
2022-08-27T02:25:10.322Z,21.83
2022-08-27T02:25:47.967Z,22.48
2022-08-27T02:26:23.634Z,23.40
2022-08-27T02:26:58.349Z,22.08
2022-08-27T02:27:32.661Z,21.92
2022-08-27T02:28:07.584Z,24.35
2022-08-27T02:28:42.274Z,22.55
2022-08-27T02:29:16.813Z,23.58
2022-08-27T02:29:51.901Z,22.75
2022-08-27T02:30:27.336Z,22.30
2022-08-27T02:31:02.827Z,22.38
2022-08-27T02:31:37.641Z,22.63
2022-08-27T02:32:17.585Z,21.92
2022-08-27T02:33:07.443Z,21.63
2022-08-27T02:33:41.538Z,22.95
2022-08-27T02:34:16.963Z,23.10
2022-08-27T02:34:51.815Z,24.75
2022-08-27T02:35:26.566Z,26.20
2022-08-27T02:36:01.405Z,23.23
2022-08-27T02:36:38.418Z,23.02
2022-08-27T02:37:12.177Z,23.08
2022-08-27T02:37:47.276Z,22.67
2022-08-27T02:38:21.070Z,22.80
2022-08-27T02:38:56.122Z,23.48
2022-08-27T02:39:31.142Z,24.88
2022-08-27T02:40:06.680Z,22.95
2022-08-27T02:40:41.901Z,24.42
2022-08-27T02:41:17.591Z,22.85
2022-08-27T02:41:52.484Z,23.45
2022-08-27T02:42:27.686Z,22.40
2022-08-27T02:43:01.950Z,24.10
2022-08-27T02:43:36.833Z,23.73
2022-08-27T02:44:11.397Z,22.88
2022-08-27T02:44:49.397Z,23.75
2022-08-27T02:45:23.181Z,22.55
2022-08-27T02:45:58.110Z,23.42
2022-08-27T02:46:33.542Z,23.85
2022-08-27T02:47:07.340Z,24.48
2022-08-27T02:47:42.000Z,23.23
2022-08-27T02:48:16.536Z,23.98
2022-08-27T02:48:50.795Z,23.52
2022-08-27T02:49:24.534Z,23.35
2022-08-27T02:49:59.862Z,23.25
2022-08-27T02:50:34.518Z,22.70
2022-08-27T02:51:08.976Z,22.70
2022-08-27T02:51:46.011Z,23.00
2022-08-27T02:52:24.212Z,23.80
2022-08-27T02:53:00.827Z,22.33
2022-08-27T02:53:35.666Z,24.30
2022-08-27T02:54:09.686Z,22.70
2022-08-27T02:54:46.155Z,24.75
2022-08-27T02:55:20.714Z,24.50
2022-08-27T02:55:57.035Z,24.25
2022-08-27T02:56:33.445Z,24.08
2022-08-27T02:57:07.134Z,23.70
2022-08-27T02:57:41.241Z,23.60
2022-08-27T02:58:17.454Z,24.25
2022-08-27T02:58:51.212Z,23.25
2022-08-27T02:59:25.089Z,23.88
2022-08-27T03:00:00.762Z,24.63
2022-08-27T03:00:33.847Z,24.27
2022-08-27T03:01:13.820Z,24.00
2022-08-27T03:01:49.563Z,23.80
2022-08-27T03:02:23.659Z,23.73
2022-08-27T03:02:59.547Z,23.00
2022-08-27T03:03:35.763Z,24.05
2022-08-27T03:04:15.109Z,24.55
2022-08-27T03:04:50.330Z,24.23
2022-08-27T03:05:27.425Z,24.48
2022-08-27T03:06:01.356Z,23.23
2022-08-27T03:06:35.223Z,22.88
2022-08-27T03:07:14.232Z,24.73
2022-08-27T03:07:52.503Z,23.80
2022-08-27T03:08:27.262Z,24.92
2022-08-27T03:09:06.238Z,24.58
2022-08-27T03:09:39.893Z,24.35
2022-08-27T03:10:15.030Z,24.48
2022-08-27T03:10:51.697Z,24.38
2022-08-27T03:11:25.569Z,24.02
2022-08-27T03:12:01.030Z,24.17
2022-08-27T03:12:37.991Z,23.38
2022-08-27T03:13:11.723Z,23.77
2022-08-27T03:13:45.833Z,24.58
2022-08-27T03:14:20.462Z,24.42
2022-08-27T03:14:54.093Z,24.65
2022-08-27T03:15:27.375Z,24.20
2022-08-27T03:16:02.342Z,23.67
2022-08-27T03:16:37.091Z,23.52
2022-08-27T03:17:28.526Z,25.27
2022-08-27T03:18:20.946Z,25.17
2022-08-27T03:18:55.263Z,22.90
2022-08-27T03:19:29.462Z,23.60
2022-08-27T03:20:04.650Z,26.00
2022-08-27T03:20:41.615Z,24.65
2022-08-27T03:21:20.197Z,24.90
2022-08-27T03:21:54.324Z,23.92
2022-08-27T03:22:28.998Z,25.52
2022-08-27T03:23:03.385Z,24.15
2022-08-27T03:23:38.852Z,24.33
2022-08-27T03:24:14.801Z,23.60
2022-08-27T03:24:49.276Z,23.67
2022-08-27T03:25:23.681Z,24.50
2022-08-27T03:25:58.490Z,23.58
2022-08-27T03:26:33.410Z,25.42
2022-08-27T03:27:09.242Z,25.35
2022-08-27T03:27:43.275Z,25.30
2022-08-27T03:28:20.631Z,25.25
2022-08-27T03:28:57.303Z,25.98
2022-08-27T03:29:31.623Z,25.77
2022-08-27T03:30:11.973Z,25.60
2022-08-27T03:30:48.844Z,25.10
2022-08-27T03:31:28.333Z,26.77
2022-08-27T03:32:01.943Z,26.98
2022-08-27T03:32:36.588Z,27.27
2022-08-27T03:33:12.146Z,25.67
2022-08-27T03:33:46.655Z,25.65
2022-08-27T03:34:20.764Z,25.10
2022-08-27T03:34:55.886Z,24.80
2022-08-27T03:35:30.068Z,25.63
2022-08-27T03:36:04.792Z,27.05
2022-08-27T03:36:40.229Z,25.77
2022-08-27T03:37:14.266Z,25.88
2022-08-27T03:37:49.391Z,24.77
2022-08-27T03:38:24.359Z,26.20
2022-08-27T03:38:58.938Z,25.42
2022-08-27T03:39:32.677Z,25.73
2022-08-27T03:40:08.278Z,25.83
2022-08-27T03:40:43.816Z,24.08
2022-08-27T03:41:18.533Z,30.92
2022-08-27T03:41:54.899Z,28.00
2022-08-27T03:42:31.787Z,26.75
2022-08-27T03:43:05.669Z,26.75
2022-08-27T03:43:40.272Z,26.90
2022-08-27T03:44:21.266Z,29.08
2022-08-27T03:44:55.323Z,29.55
2022-08-27T03:45:29.226Z,43.92
2022-08-27T03:46:17.259Z,48.78
2022-08-27T03:46:51.636Z,51.28
2022-08-27T03:47:26.357Z,51.83
2022-08-27T03:48:00.437Z,37.17
2022-08-27T03:48:34.985Z,31.23
2022-08-27T03:49:08.849Z,29.20
2022-08-27T03:49:48.810Z,29.20
2022-08-27T03:50:22.908Z,29.80
2022-08-27T03:50:57.741Z,31.92
2022-08-27T03:51:32.895Z,29.30
2022-08-27T03:52:07.342Z,32.45
2022-08-27T03:52:41.418Z,31.40
2022-08-27T03:53:18.500Z,35.60
2022-08-27T03:53:53.023Z,36.45
2022-08-27T03:54:26.826Z,36.08
2022-08-27T03:55:01.804Z,32.42
2022-08-27T03:55:37.109Z,33.17
2022-08-27T03:56:10.329Z,30.02
2022-08-27T03:56:45.790Z,33.03
2022-08-27T03:57:20.138Z,33.42
2022-08-27T03:57:56.260Z,33.58
2022-08-27T03:58:29.911Z,32.28
2022-08-27T03:59:03.737Z,33.53
2022-08-27T03:59:38.454Z,36.33
2022-08-27T04:00:15.007Z,41.47
2022-08-27T04:00:51.731Z,39.83
2022-08-27T04:01:28.493Z,36.75
2022-08-27T04:02:02.800Z,34.88
2022-08-27T04:02:38.801Z,38.30
2022-08-27T04:03:13.347Z,36.90
2022-08-27T04:03:47.961Z,35.35
2022-08-27T04:04:24.570Z,36.03
2022-08-27T04:04:59.906Z,37.83
2022-08-27T04:05:33.542Z,40.42
2022-08-27T04:06:08.802Z,43.50
2022-08-27T04:06:42.928Z,46.53
2022-08-27T04:07:16.797Z,45.88
2022-08-27T04:07:52.073Z,45.13
2022-08-27T04:08:26.753Z,43.28
2022-08-27T04:09:00.448Z,42.03
2022-08-27T04:09:34.757Z,42.30
2022-08-27T04:10:10.637Z,44.95
2022-08-27T04:10:43.775Z,43.60
2022-08-27T04:11:17.890Z,43.67
2022-08-27T04:11:51.719Z,46.03
2022-08-27T04:12:25.354Z,46.33
2022-08-27T04:13:01.295Z,47.00
2022-08-27T04:13:35.290Z,42.55
2022-08-27T04:14:19.747Z,44.53
2022-08-27T04:15:02.140Z,42.50
2022-08-27T04:15:35.259Z,41.88
2022-08-27T04:16:15.928Z,44.67
2022-08-27T04:16:50.751Z,46.80
2022-08-27T04:17:28.228Z,46.42
2022-08-27T04:18:03.428Z,48.47
2022-08-27T04:18:38.254Z,46.83
2022-08-27T04:19:13.723Z,49.40
2022-08-27T04:19:51.827Z,49.53
2022-08-27T04:20:35.012Z,48.42
2022-08-27T04:21:12.198Z,48.47
2022-08-27T04:21:47.497Z,48.72
2022-08-27T04:22:21.817Z,47.63
2022-08-27T04:22:56.280Z,48.25
2022-08-27T04:23:32.876Z,46.38
2022-08-27T04:24:06.146Z,49.50
2022-08-27T04:24:40.768Z,49.92
2022-08-27T04:25:17.540Z,50.58
2022-08-27T04:25:50.765Z,50.92
2022-08-27T04:26:25.057Z,51.55
2022-08-27T04:27:00.285Z,50.45
2022-08-27T04:27:34.789Z,51.60
2022-08-27T04:28:10.823Z,51.30
2022-08-27T04:28:48.692Z,49.30
2022-08-27T04:29:22.680Z,51.40
2022-08-27T04:29:57.729Z,51.63
2022-08-27T04:30:33.138Z,51.78
2022-08-27T04:31:13.898Z,51.63
2022-08-27T04:31:51.132Z,51.55
2022-08-27T04:32:29.182Z,51.08
2022-08-27T04:33:03.820Z,51.95
2022-08-27T04:33:37.958Z,47.28
2022-08-27T04:34:12.131Z,46.28
2022-08-27T04:34:45.397Z,49.60
2022-08-27T04:35:20.630Z,50.88
2022-08-27T04:35:59.348Z,49.75
2022-08-27T04:36:34.275Z,51.13
2022-08-27T04:37:08.271Z,50.33
2022-08-27T04:37:44.193Z,52.70
2022-08-27T04:38:19.010Z,53.88
2022-08-27T04:38:52.197Z,52.90
2022-08-27T04:39:26.053Z,53.28
2022-08-27T04:40:01.704Z,53.38
2022-08-27T04:40:55.928Z,53.47
2022-08-27T04:41:34.120Z,53.53
2022-08-27T04:42:09.416Z,53.70
2022-08-27T04:42:43.741Z,52.33
2022-08-27T04:43:18.950Z,55.22
2022-08-27T04:43:55.200Z,58.50
2022-08-27T04:44:29.830Z,59.75
2022-08-27T04:45:03.890Z,57.33
2022-08-27T04:45:45.321Z,56.55
2022-08-27T04:46:23.237Z,59.53
2022-08-27T04:46:57.412Z,61.15
2022-08-27T04:47:32.906Z,60.80
2022-08-27T04:48:07.614Z,63.17
2022-08-27T04:48:41.080Z,62.97
2022-08-27T04:49:17.798Z,66.95
2022-08-27T04:49:50.712Z,63.30
2022-08-27T04:50:24.881Z,63.15
2022-08-27T04:51:05.421Z,62.47
2022-08-27T04:51:41.866Z,62.03
2022-08-27T04:52:18.024Z,62.28
2022-08-27T04:52:51.812Z,65.90
2022-08-27T04:53:26.971Z,63.72
2022-08-27T04:54:02.402Z,63.90
2022-08-27T04:54:36.885Z,64.32
2022-08-27T04:55:12.708Z,64.00
2022-08-27T04:55:46.743Z,64.90
2022-08-27T04:56:22.411Z,64.22
2022-08-27T04:56:58.181Z,65.95
2022-08-27T04:57:32.226Z,64.95
2022-08-27T04:58:06.959Z,64.43
2022-08-27T04:58:43.041Z,65.45
2022-08-27T04:59:17.266Z,66.00
2022-08-27T04:59:52.805Z,67.13
2022-08-27T05:00:26.818Z,65.72
2022-08-27T05:01:02.182Z,65.47
2022-08-27T05:01:37.356Z,64.80
2022-08-27T05:02:12.126Z,66.38
2022-08-27T05:02:46.739Z,65.82
2022-08-27T05:03:24.396Z,67.50
2022-08-27T05:04:00.146Z,68.22
2022-08-27T05:04:34.526Z,68.07
2022-08-27T05:05:14.204Z,66.57
2022-08-27T05:05:51.170Z,71.18
2022-08-27T05:06:27.810Z,68.75
2022-08-27T05:07:02.224Z,68.60
2022-08-27T05:07:35.485Z,68.90
2022-08-27T05:08:11.550Z,70.25
2022-08-27T05:08:46.007Z,71.07
2022-08-27T05:09:20.145Z,70.80
2022-08-27T05:09:59.186Z,70.47
2022-08-27T05:10:33.319Z,71.68
2022-08-27T05:11:08.680Z,69.57
2022-08-27T05:11:43.261Z,66.78
2022-08-27T05:12:26.411Z,68.63
2022-08-27T05:13:00.555Z,65.60
2022-08-27T05:13:34.607Z,68.50
2022-08-27T05:14:11.974Z,69.95
2022-08-27T05:14:47.698Z,68.07
2022-08-27T05:15:22.019Z,68.72
2022-08-27T05:16:00.584Z,64.70
2022-08-27T05:16:37.105Z,64.22
2022-08-27T05:17:10.634Z,62.83
2022-08-27T05:17:44.390Z,61.13
2022-08-27T05:18:19.544Z,62.67
2022-08-27T05:18:53.748Z,61.97
2022-08-27T05:19:28.040Z,63.00
2022-08-27T05:20:02.349Z,58.45
2022-08-27T05:20:43.232Z,62.60
2022-08-27T05:21:18.382Z,63.05
2022-08-27T05:21:53.439Z,60.42
2022-08-27T05:22:29.439Z,64.10
2022-08-27T05:23:03.358Z,61.75
2022-08-27T05:23:36.971Z,60.85
2022-08-27T05:24:14.369Z,59.15
2022-08-27T05:24:50.314Z,56.25
2022-08-27T05:25:24.955Z,58.70
2022-08-27T05:26:00.650Z,59.08
2022-08-27T05:26:35.309Z,59.30
2022-08-27T05:27:10.194Z,59.85
2022-08-27T05:27:47.271Z,58.45
2022-08-27T05:28:28.040Z,57.20
2022-08-27T05:29:03.778Z,57.78
2022-08-27T05:29:39.306Z,57.85
2022-08-27T05:30:16.672Z,54.55
2022-08-27T05:30:52.582Z,55.15
2022-08-27T05:32:06.763Z,55.35
2022-08-27T05:32:40.544Z,57.38
2022-08-27T05:33:15.983Z,56.85
2022-08-27T05:33:50.739Z,55.30
2022-08-27T05:34:26.882Z,56.70
2022-08-27T05:35:03.016Z,55.63
2022-08-27T05:35:42.096Z,55.63
2022-08-27T05:36:17.376Z,51.70
2022-08-27T05:36:52.286Z,56.42
2022-08-27T05:37:26.789Z,53.15
2022-08-27T05:38:00.397Z,52.33
2022-08-27T05:38:37.173Z,51.85
2022-08-27T05:39:10.522Z,52.28
2022-08-27T05:39:46.269Z,54.88
2022-08-27T05:40:20.779Z,55.72
2022-08-27T05:41:04.456Z,52.60
2022-08-27T05:41:40.123Z,54.42
2022-08-27T05:42:13.907Z,54.67
2022-08-27T05:42:51.227Z,53.47
2022-08-27T05:43:26.207Z,50.97
2022-08-27T05:44:07.717Z,53.67
2022-08-27T05:44:55.818Z,53.25
2022-08-27T05:45:29.891Z,52.38
2022-08-27T05:46:06.547Z,56.30
2022-08-27T05:46:41.593Z,55.33
2022-08-27T05:47:17.061Z,57.00
2022-08-27T05:47:50.905Z,55.90
2022-08-27T05:48:25.737Z,55.90
2022-08-27T05:49:00.323Z,57.55
2022-08-27T05:49:34.846Z,57.53
2022-08-27T05:50:09.291Z,56.38
2022-08-27T05:50:44.813Z,56.72
2022-08-27T05:51:25.239Z,56.20
2022-08-27T05:51:59.621Z,55.83
2022-08-27T05:52:35.491Z,55.72
2022-08-27T05:53:10.802Z,57.17
2022-08-27T05:53:44.791Z,53.95
2022-08-27T05:54:20.281Z,56.10
2022-08-27T05:54:53.945Z,56.22
2022-08-27T05:55:28.011Z,56.35
2022-08-27T05:56:03.606Z,58.58
2022-08-27T05:56:39.355Z,59.38
2022-08-27T05:57:14.893Z,58.65
2022-08-27T05:57:48.547Z,57.22
2022-08-27T05:58:39.931Z,58.55
2022-08-27T05:59:34.592Z,57.38
2022-08-27T06:00:29.939Z,57.50
2022-08-27T06:01:10.163Z,59.70
2022-08-27T06:01:46.988Z,59.50
2022-08-27T06:02:21.762Z,59.22
2022-08-27T06:02:55.903Z,58.30
2022-08-27T06:03:31.662Z,58.55
2022-08-27T06:04:06.519Z,58.53
2022-08-27T06:04:41.590Z,61.47
2022-08-27T06:05:17.142Z,57.47
2022-08-27T06:05:51.500Z,57.53
2022-08-27T06:06:25.164Z,59.20
2022-08-27T06:07:00.077Z,56.90
2022-08-27T06:07:35.297Z,57.85
2022-08-27T06:08:09.128Z,60.13
2022-08-27T06:08:44.692Z,60.03
2022-08-27T06:09:19.862Z,58.90
2022-08-27T06:09:55.296Z,60.88
2022-08-27T06:10:30.070Z,60.92
2022-08-27T06:11:06.150Z,62.78
2022-08-27T06:11:40.756Z,61.08
2022-08-27T06:12:14.725Z,63.80
2022-08-27T06:12:48.413Z,67.57
2022-08-27T06:13:23.066Z,65.57
2022-08-27T06:13:56.835Z,69.07
2022-08-27T06:14:32.245Z,67.45
2022-08-27T06:15:07.287Z,66.93
2022-08-27T06:15:43.396Z,70.28
2022-08-27T06:16:20.949Z,67.78
2022-08-27T06:16:55.839Z,66.32
2022-08-27T06:17:32.100Z,65.70
2022-08-27T06:18:06.579Z,63.53
2022-08-27T06:18:40.186Z,66.53
2022-08-27T06:19:14.967Z,67.18
2022-08-27T06:19:49.069Z,71.18
2022-08-27T06:20:25.784Z,69.28
2022-08-27T06:21:00.144Z,67.00
2022-08-27T06:21:35.114Z,67.38
2022-08-27T06:22:10.799Z,67.15
2022-08-27T06:22:46.146Z,67.82
2022-08-27T06:23:28.187Z,67.65
2022-08-27T06:24:01.689Z,67.78
2022-08-27T06:24:34.788Z,67.50
2022-08-27T06:25:11.139Z,70.57
2022-08-27T06:25:45.503Z,66.50
2022-08-27T06:26:21.791Z,65.95
2022-08-27T06:26:55.952Z,69.50
2022-08-27T06:27:30.897Z,69.18
2022-08-27T06:28:06.690Z,68.00
2022-08-27T06:28:42.089Z,67.28
2022-08-27T06:29:16.285Z,77.78
2022-08-27T06:29:51.923Z,72.03
2022-08-27T06:30:26.018Z,70.07
2022-08-27T06:31:08.247Z,69.82
2022-08-27T06:31:43.235Z,71.30
2022-08-27T06:32:20.394Z,70.20
2022-08-27T06:32:54.499Z,71.32
2022-08-27T06:33:29.920Z,70.40
2022-08-27T06:34:07.672Z,72.68
2022-08-27T06:34:42.344Z,70.65
2022-08-27T06:35:18.020Z,68.28
2022-08-27T06:35:54.337Z,67.95
2022-08-27T06:36:28.245Z,67.70
2022-08-27T06:37:02.377Z,67.05
2022-08-27T06:37:38.173Z,64.88
2022-08-27T06:38:12.543Z,66.80
2022-08-27T06:38:48.646Z,67.93
2022-08-27T06:39:25.047Z,66.93
2022-08-27T06:40:03.841Z,70.53
2022-08-27T06:40:37.711Z,70.10
2022-08-27T06:41:23.280Z,70.75
2022-08-27T06:41:59.079Z,69.22
2022-08-27T06:42:34.799Z,71.72
2022-08-27T06:43:10.628Z,70.60
2022-08-27T06:43:45.826Z,68.82
2022-08-27T06:44:21.056Z,71.82
2022-08-27T06:44:56.059Z,74.80
2022-08-27T06:45:30.598Z,76.20
2022-08-27T06:46:07.331Z,73.75
2022-08-27T06:46:44.047Z,76.07
2022-08-27T06:47:19.157Z,74.13
2022-08-27T06:47:56.353Z,73.15
2022-08-27T06:48:30.146Z,72.05
2022-08-27T06:49:09.556Z,71.53
2022-08-27T06:49:43.832Z,69.70
2022-08-27T06:50:25.435Z,72.65
2022-08-27T06:51:03.050Z,71.85
2022-08-27T06:51:38.409Z,71.28
2022-08-27T06:52:13.870Z,70.70
2022-08-27T06:52:47.703Z,68.35
2022-08-27T06:53:24.338Z,67.07
2022-08-27T06:54:00.579Z,65.60
2022-08-27T06:54:35.861Z,64.15
2022-08-27T06:55:12.633Z,65.57
2022-08-27T06:55:47.383Z,67.28
2022-08-27T06:56:20.980Z,66.80
2022-08-27T06:56:55.778Z,65.43
2022-08-27T06:57:29.461Z,51.97
2022-08-27T06:58:04.287Z,54.20
2022-08-27T06:58:39.117Z,69.72
2022-08-27T06:59:16.459Z,66.57
2022-08-27T06:59:50.793Z,67.22
2022-08-27T07:00:25.747Z,62.28
2022-08-27T07:00:59.918Z,63.22
2022-08-27T07:01:34.648Z,67.10
2022-08-27T07:02:12.131Z,63.42
2022-08-27T07:02:45.648Z,62.47
2022-08-27T07:03:18.888Z,62.78
2022-08-27T07:03:54.275Z,61.53
2022-08-27T07:04:32.546Z,60.63
2022-08-27T07:05:09.732Z,60.08
2022-08-27T07:05:43.353Z,56.95
2022-08-27T07:06:17.174Z,58.95
2022-08-27T07:06:53.219Z,51.92
2022-08-27T07:07:36.520Z,48.80
2022-08-27T07:08:14.345Z,53.30
2022-08-27T07:08:53.018Z,53.03
2022-08-27T07:09:30.844Z,51.78
2022-08-27T07:10:04.881Z,42.78
2022-08-27T07:10:39.562Z,35.63
2022-08-27T07:11:17.226Z,36.20
2022-08-27T07:11:50.800Z,37.90
2022-08-27T07:12:30.628Z,38.47
2022-08-27T07:13:05.185Z,37.92
2022-08-27T07:13:40.125Z,36.40
2022-08-27T07:14:13.342Z,36.35
2022-08-27T07:14:47.960Z,35.67
2022-08-27T07:15:24.782Z,32.33
2022-08-27T07:16:00.803Z,33.53
2022-08-27T07:16:39.635Z,37.42
2022-08-27T07:17:18.404Z,33.45
2022-08-27T07:17:52.776Z,34.53
2022-08-27T07:18:29.602Z,34.80
2022-08-27T07:19:05.846Z,34.95
2022-08-27T07:19:40.819Z,35.33
2022-08-27T07:20:18.157Z,35.08
2022-08-27T07:20:54.564Z,36.88
2022-08-27T07:21:29.538Z,38.67
2022-08-27T07:22:04.534Z,37.38
2022-08-27T07:22:41.652Z,35.95
2022-08-27T07:23:17.145Z,34.25
2022-08-27T07:23:51.519Z,34.03
2022-08-27T07:24:26.184Z,33.95
2022-08-27T07:25:00.931Z,30.65
2022-08-27T07:25:35.876Z,30.35
2022-08-27T07:26:11.045Z,30.05
2022-08-27T07:26:47.015Z,29.85
2022-08-27T07:27:21.415Z,30.75
2022-08-27T07:27:56.074Z,30.77
2022-08-27T07:28:31.069Z,29.42
2022-08-27T07:29:05.476Z,27.65
2022-08-27T07:29:39.463Z,27.63
2022-08-27T07:30:17.270Z,28.13
2022-08-27T07:30:51.545Z,27.60
2022-08-27T07:31:25.549Z,28.25
2022-08-27T07:32:00.052Z,26.15
2022-08-27T07:32:35.424Z,26.42
2022-08-27T07:33:09.471Z,27.13
2022-08-27T07:33:51.326Z,25.58
2022-08-27T07:34:27.824Z,26.15
2022-08-27T07:35:02.186Z,26.13
2022-08-27T07:35:38.981Z,26.23
2022-08-27T07:36:12.788Z,26.45
2022-08-27T07:36:48.833Z,26.98
2022-08-27T07:37:22.945Z,30.33
2022-08-27T07:38:00.618Z,26.70
2022-08-27T07:38:34.782Z,27.50
2022-08-27T07:39:09.693Z,27.38
2022-08-27T07:39:45.667Z,29.35
2022-08-27T07:40:20.179Z,28.30
2022-08-27T07:40:53.659Z,28.95
2022-08-27T07:41:31.143Z,32.20